Wetterdaten: Woche 21.01.19 - 27.01.19 (KW4)
Datum Zeit Temperatur Luftfeuchte Luftdruck Niederschlag Windrichtung Sonnenschein Solar Wind
21.01.2019 00:00 -2,9 C 92 % 1018,2 hPa 0,0 l/m N 0,00 h 0 W/m 3,1 km/h (1 Bft)
21.01.2019 01:00 -3,0 C 93 % 1018,2 hPa 0,0 l/m N-NO 0,00 h 0 W/m 4,8 km/h (1 Bft)
21.01.2019 02:00 -3,2 C 94 % 1018,4 hPa 0,0 l/m N-NO 0,00 h 0 W/m 7,1 km/h (2 Bft)
21.01.2019 03:00 -3,2 C 94 % 1018,4 hPa 0,0 l/m N-NO 0,00 h 0 W/m 4,7 km/h (1 Bft)
21.01.2019 04:00 -3,2 C 94 % 1018,2 hPa 0,0 l/m N-NO 0,00 h 0 W/m 2,3 km/h (1 Bft)
21.01.2019 05:00 -3,2 C 95 % 1018,1 hPa 0,0 l/m N-NO 0,00 h 0 W/m 2,8 km/h (1 Bft)
21.01.2019 06:00 -3,3 C 95 % 1018,5 hPa 0,0 l/m N-NO 0,00 h 0 W/m 1,5 km/h (1 Bft)
21.01.2019 07:00 -3,3 C 94 % 1018,8 hPa 0,0 l/m N-NO 0,00 h 0 W/m 0,9 km/h (0 Bft)
21.01.2019 08:00 -3,3 C 94 % 1019,3 hPa 0,0 l/m N-NO 0,00 h 9 W/m 5,9 km/h (2 Bft)
21.01.2019 09:00 -3,3 C 95 % 1019,6 hPa 0,0 l/m N-NO 0,00 h 28 W/m 5,1 km/h (1 Bft)
21.01.2019 10:00 -3,2 C 95 % 1019,8 hPa 0,0 l/m N-NO 0,00 h 53 W/m 3,9 km/h (1 Bft)
21.01.2019 11:00 -2,7 C 94 % 1019,9 hPa 0,0 l/m N-NO 0,00 h 93 W/m 2,3 km/h (1 Bft)
21.01.2019 12:00 -2,2 C 92 % 1019,4 hPa 0,0 l/m N 0,00 h 120 W/m 0,3 km/h (0 Bft)
21.01.2019 13:00 -1,8 C 91 % 1018,9 hPa 0,0 l/m N 0,00 h 109 W/m 0,0 km/h (0 Bft)
21.01.2019 14:00 -1,6 C 91 % 1018,5 hPa 0,0 l/m N-NO 0,00 h 68 W/m 2,4 km/h (1 Bft)
21.01.2019 15:00 -1,5 C 91 % 1018,4 hPa 0,0 l/m N-NO 0,00 h 55 W/m 2,8 km/h (1 Bft)
21.01.2019 16:00 -1,6 C 91 % 1018,6 hPa 0,0 l/m N-NO 0,00 h 19 W/m 3,3 km/h (1 Bft)
21.01.2019 17:00 -2,1 C 91 % 1018,6 hPa 0,0 l/m N-NO 0,00 h 5 W/m 0,5 km/h (0 Bft)
21.01.2019 18:00 -2,3 C 92 % 1018,3 hPa 0,0 l/m N-NO 0,00 h 0 W/m 0,9 km/h (0 Bft)
21.01.2019 19:00 -2,5 C 93 % 1018,4 hPa 0,0 l/m N-NO 0,00 h 0 W/m 2,9 km/h (1 Bft)
21.01.2019 20:00 -2,6 C 94 % 1018,5 hPa 0,0 l/m N-NO 0,00 h 0 W/m 5,5 km/h (1 Bft)
21.01.2019 21:00 -2,6 C 93 % 1018,5 hPa 0,0 l/m N-NO 0,00 h 0 W/m 2,3 km/h (1 Bft)
21.01.2019 22:00 -2,8 C 93 % 1018,3 hPa 0,0 l/m N 0,00 h 0 W/m 0,0 km/h (0 Bft)
21.01.2019 23:00 -3,0 C 93 % 1018,3 hPa 0,0 l/m N-NO 0,00 h 0 W/m 0,8 km/h (0 Bft)
22.01.2019 00:00 -3,2 C 94 % 1018,1 hPa 0,0 l/m N-NO 0,00 h 0 W/m 0,9 km/h (0 Bft)
22.01.2019 01:00 -3,4 C 94 % 1017,5 hPa 0,0 l/m N 0,00 h 0 W/m 1,1 km/h (0 Bft)
22.01.2019 02:00 -3,5 C 94 % 1016,6 hPa 0,0 l/m N-NO 0,00 h 0 W/m 4,9 km/h (1 Bft)
22.01.2019 03:00 -3,5 C 95 % 1015,8 hPa 0,0 l/m NW 0,00 h 0 W/m 2,3 km/h (1 Bft)
22.01.2019 04:00 -3,5 C 95 % 1015,0 hPa 0,0 l/m NW 0,00 h 0 W/m 2,1 km/h (1 Bft)
22.01.2019 05:00 -3,2 C 96 % 1014,4 hPa 0,0 l/m NW 0,00 h 0 W/m 3,6 km/h (1 Bft)
22.01.2019 06:00 -3,2 C 95 % 1013,7 hPa 0,0 l/m NW 0,00 h 0 W/m 2,4 km/h (1 Bft)
22.01.2019 07:00 -3,2 C 95 % 1013,4 hPa 0,0 l/m NW 0,00 h 0 W/m 1,1 km/h (0 Bft)
22.01.2019 08:00 -3,2 C 95 % 1013,1 hPa 0,0 l/m NW 0,00 h 9 W/m 0,4 km/h (0 Bft)
22.01.2019 09:00 -3,3 C 95 % 1012,9 hPa 0,0 l/m NW 0,00 h 27 W/m 2,0 km/h (1 Bft)
22.01.2019 10:00 -3,2 C 95 % 1012,4 hPa 0,0 l/m W-NW 0,00 h 50 W/m 5,1 km/h (1 Bft)
22.01.2019 11:00 -3,1 C 95 % 1011,6 hPa 0,0 l/m W-NW 0,00 h 70 W/m 4,5 km/h (1 Bft)
22.01.2019 12:00 -2,8 C 95 % 1010,4 hPa 0,0 l/m W-NW 0,00 h 79 W/m 5,3 km/h (1 Bft)
22.01.2019 13:00 -2,7 C 95 % 1009,2 hPa 0,0 l/m W 0,00 h 77 W/m 1,2 km/h (1 Bft)
22.01.2019 14:00 -2,4 C 94 % 1008,0 hPa 0,0 l/m W 0,00 h 69 W/m 3,5 km/h (1 Bft)
22.01.2019 15:00 -2,3 C 94 % 1006,8 hPa 0,0 l/m W 0,00 h 48 W/m 3,7 km/h (1 Bft)
22.01.2019 16:00 -2,4 C 93 % 1005,9 hPa 0,0 l/m W 0,00 h 16 W/m 2,0 km/h (1 Bft)
22.01.2019 17:00 -2,7 C 92 % 1005,3 hPa 0,0 l/m N 0,00 h 0 W/m 0,0 km/h (0 Bft)
22.01.2019 18:00 -3,1 C 92 % 1004,7 hPa 0,0 l/m N 0,00 h 0 W/m 0,0 km/h (0 Bft)
22.01.2019 19:00 -3,3 C 92 % 1004,3 hPa 0,0 l/m N 0,00 h 0 W/m 0,4 km/h (0 Bft)
22.01.2019 20:00 -3,6 C 92 % 1003,8 hPa 0,0 l/m S 0,00 h 0 W/m 4,9 km/h (1 Bft)
22.01.2019 21:00 -3,9 C 93 % 1003,4 hPa 0,0 l/m N 0,00 h 0 W/m 0,9 km/h (0 Bft)
22.01.2019 22:00 -4,0 C 93 % 1002,8 hPa 0,0 l/m S 0,00 h 0 W/m 0,0 km/h (0 Bft)
22.01.2019 23:00 -4,5 C 93 % 1002,5 hPa 0,0 l/m S 0,00 h 0 W/m 3,2 km/h (1 Bft)
23.01.2019 00:00 -5,2 C 93 % 1001,8 hPa 0,0 l/m N 0,00 h 0 W/m 0,0 km/h (0 Bft)
23.01.2019 01:00 -5,4 C 93 % 1001,2 hPa 0,0 l/m N 0,00 h 0 W/m 0,0 km/h (0 Bft)
23.01.2019 02:00 -5,3 C 93 % 1000,5 hPa 0,0 l/m N 0,00 h 0 W/m 0,0 km/h (0 Bft)
23.01.2019 03:00 -5,0 C 94 % 999,7 hPa 0,0 l/m N 0,00 h 0 W/m 0,3 km/h (0 Bft)
23.01.2019 04:00 -4,6 C 94 % 998,8 hPa 0,0 l/m S 0,00 h 0 W/m 0,4 km/h (0 Bft)
23.01.2019 05:00 -4,3 C 94 % 998,3 hPa 0,0 l/m S-SW 0,00 h 0 W/m 1,7 km/h (1 Bft)
23.01.2019 06:00 -4,3 C 92 % 997,8 hPa 0,0 l/m S-SW 0,00 h 0 W/m 3,2 km/h (1 Bft)
23.01.2019 07:00 -4,4 C 91 % 997,6 hPa 0,0 l/m S-SW 0,00 h 0 W/m 1,5 km/h (1 Bft)
23.01.2019 08:00 -4,4 C 91 % 997,2 hPa 0,0 l/m S-SW 0,00 h 15 W/m 1,1 km/h (0 Bft)
23.01.2019 09:00 -4,4 C 91 % 997,0 hPa 0,0 l/m S-SW 0,00 h 47 W/m 0,4 km/h (0 Bft)
23.01.2019 10:00 -4,1 C 90 % 996,7 hPa 0,0 l/m N 0,00 h 112 W/m 0,3 km/h (0 Bft)
23.01.2019 11:00 -3,6 C 89 % 996,4 hPa 0,0 l/m S 0,42 h 196 W/m 2,8 km/h (1 Bft)
23.01.2019 12:00 -3,1 C 87 % 995,9 hPa 0,0 l/m S-SO 0,92 h 234 W/m 5,1 km/h (1 Bft)
23.01.2019 13:00 -2,6 C 85 % 995,6 hPa 0,0 l/m SO 0,83 h 244 W/m 5,2 km/h (1 Bft)
23.01.2019 14:00 -2,7 C 84 % 995,6 hPa 0,0 l/m O-SO 0,33 h 143 W/m 8,6 km/h (2 Bft)
23.01.2019 15:00 -2,9 C 85 % 995,9 hPa 0,0 l/m O-SO 0,00 h 78 W/m 8,0 km/h (2 Bft)
23.01.2019 16:00 -2,9 C 86 % 996,3 hPa 0,0 l/m O-SO 0,00 h 14 W/m 5,9 km/h (2 Bft)
23.01.2019 17:00 -3,2 C 87 % 996,8 hPa 0,0 l/m O-NO 0,00 h 0 W/m 9,1 km/h (2 Bft)
23.01.2019 18:00 -3,3 C 87 % 997,5 hPa 0,0 l/m NO 0,00 h 0 W/m 9,9 km/h (2 Bft)
23.01.2019 19:00 -3,5 C 88 % 998,1 hPa 0,0 l/m NO 0,00 h 0 W/m 9,8 km/h (2 Bft)
23.01.2019 20:00 -3,6 C 88 % 998,7 hPa 0,0 l/m NO 0,00 h 0 W/m 9,8 km/h (2 Bft)
23.01.2019 21:00 -3,7 C 89 % 999,3 hPa 0,0 l/m NO 0,00 h 0 W/m 2,3 km/h (1 Bft)
23.01.2019 22:00 -3,7 C 89 % 999,9 hPa 0,0 l/m N 0,00 h 0 W/m 0,3 km/h (0 Bft)
23.01.2019 23:00 -3,6 C 89 % 1000,5 hPa 0,0 l/m N 0,00 h 0 W/m 0,0 km/h (0 Bft)
24.01.2019 00:00 -3,7 C 88 % 1001,2 hPa 0,0 l/m NO 0,00 h 0 W/m 0,7 km/h (0 Bft)
24.01.2019 01:00 -3,9 C 88 % 1001,8 hPa 0,0 l/m N 0,00 h 0 W/m 0,9 km/h (0 Bft)
24.01.2019 02:00 -4,0 C 88 % 1002,6 hPa 0,0 l/m N 0,00 h 0 W/m 0,3 km/h (0 Bft)
24.01.2019 03:00 -4,1 C 90 % 1003,0 hPa 0,0 l/m NO 0,00 h 0 W/m 4,3 km/h (1 Bft)
24.01.2019 04:00 -4,2 C 91 % 1003,5 hPa 0,0 l/m NO 0,00 h 0 W/m 2,0 km/h (1 Bft)
24.01.2019 05:00 -4,2 C 92 % 1004,0 hPa 0,0 l/m N 0,00 h 0 W/m 0,0 km/h (0 Bft)
24.01.2019 06:00 -4,0 C 92 % 1004,3 hPa 0,0 l/m N 0,00 h 0 W/m 0,0 km/h (0 Bft)
24.01.2019 07:00 -4,0 C 93 % 1005,1 hPa 0,0 l/m N 0,00 h 0 W/m 0,0 km/h (0 Bft)
24.01.2019 08:00 -4,0 C 93 % 1005,8 hPa 0,0 l/m N 0,00 h 8 W/m 0,3 km/h (0 Bft)
24.01.2019 09:00 -4,1 C 94 % 1006,7 hPa 0,2 l/m NO 0,00 h 20 W/m 2,5 km/h (1 Bft)
24.01.2019 10:00 -3,6 C 94 % 1007,1 hPa 1,2 l/m N 0,00 h 64 W/m 0,4 km/h (0 Bft)
24.01.2019 11:00 -2,9 C 93 % 1007,5 hPa 0,0 l/m N 0,08 h 113 W/m 0,4 km/h (0 Bft)
24.01.2019 12:00 -2,0 C 91 % 1007,7 hPa 0,0 l/m N 0,17 h 159 W/m 0,7 km/h (0 Bft)
24.01.2019 13:00 -2,1 C 88 % 1007,8 hPa 0,0 l/m NO 0,00 h 115 W/m 1,7 km/h (1 Bft)
24.01.2019 14:00 -2,2 C 88 % 1008,1 hPa 0,0 l/m NO 0,00 h 94 W/m 2,4 km/h (1 Bft)
24.01.2019 15:00 -2,3 C 87 % 1008,5 hPa 0,0 l/m N-NO 0,00 h 67 W/m 1,9 km/h (1 Bft)
24.01.2019 16:00 -2,9 C 85 % 1009,1 hPa 0,0 l/m N-NO 0,00 h 17 W/m 5,7 km/h (1 Bft)
24.01.2019 17:00 -3,3 C 85 % 1009,9 hPa 0,0 l/m N 0,00 h 0 W/m 1,9 km/h (1 Bft)
24.01.2019 18:00 -3,7 C 86 % 1010,6 hPa 0,0 l/m N 0,00 h 0 W/m 1,9 km/h (1 Bft)
24.01.2019 19:00 -3,9 C 87 % 1011,2 hPa 0,0 l/m N 0,00 h 0 W/m 5,9 km/h (2 Bft)
24.01.2019 20:00 -4,3 C 87 % 1011,9 hPa 0,0 l/m N 0,00 h 0 W/m 3,1 km/h (1 Bft)
24.01.2019 21:00 -4,6 C 87 % 1012,5 hPa 0,0 l/m N-NW 0,00 h 0 W/m 8,7 km/h (2 Bft)
24.01.2019 22:00 -4,8 C 83 % 1013,1 hPa 0,0 l/m NW 0,00 h 0 W/m 14,1 km/h (3 Bft)
24.01.2019 23:00 -4,9 C 81 % 1013,3 hPa 0,0 l/m NW 0,00 h 0 W/m 12,6 km/h (3 Bft)
25.01.2019 00:00 -4,8 C 82 % 1013,5 hPa 0,0 l/m NW 0,00 h 0 W/m 6,0 km/h (2 Bft)
25.01.2019 01:00 -4,9 C 84 % 1013,5 hPa 0,0 l/m NW 0,00 h 0 W/m 1,3 km/h (1 Bft)
25.01.2019 02:00 -5,1 C 85 % 1013,8 hPa 0,0 l/m NW 0,00 h 0 W/m 4,2 km/h (1 Bft)
25.01.2019 03:00 -5,0 C 86 % 1014,1 hPa 0,0 l/m W-NW 0,00 h 0 W/m 3,6 km/h (1 Bft)
25.01.2019 04:00 -4,9 C 87 % 1014,2 hPa 0,0 l/m N 0,00 h 0 W/m 0,0 km/h (0 Bft)
25.01.2019 05:00 -4,9 C 87 % 1014,6 hPa 0,0 l/m N 0,00 h 0 W/m 0,0 km/h (0 Bft)
25.01.2019 06:00 -5,9 C 87 % 1014,8 hPa 0,0 l/m N 0,00 h 0 W/m 0,5 km/h (0 Bft)
25.01.2019 07:00 -6,9 C 88 % 1015,2 hPa 0,0 l/m W-NW 0,00 h 5 W/m 6,4 km/h (2 Bft)
25.01.2019 08:00 -6,5 C 89 % 1015,9 hPa 0,0 l/m W 0,50 h 39 W/m 10,3 km/h (2 Bft)
25.01.2019 09:00 -5,5 C 88 % 1016,8 hPa 0,0 l/m W 0,75 h 146 W/m 12,3 km/h (3 Bft)
25.01.2019 10:00 -4,3 C 87 % 1017,2 hPa 0,0 l/m W 0,67 h 202 W/m 16,2 km/h (3 Bft)
25.01.2019 11:00 -3,5 C 85 % 1017,4 hPa 0,0 l/m W-SW 0,33 h 212 W/m 17,0 km/h (3 Bft)
25.01.2019 12:00 -2,8 C 82 % 1017,3 hPa 0,0 l/m SW 0,25 h 216 W/m 17,6 km/h (3 Bft)
25.01.2019 13:00 -2,3 C 80 % 1017,1 hPa 0,0 l/m W-SW 0,75 h 251 W/m 18,4 km/h (3 Bft)
25.01.2019 14:00 -1,8 C 78 % 1017,2 hPa 0,0 l/m SW 0,75 h 213 W/m 15,3 km/h (3 Bft)
25.01.2019 15:00 -1,9 C 77 % 1017,5 hPa 0,0 l/m SW 0,08 h 89 W/m 14,2 km/h (3 Bft)
25.01.2019 16:00 -2,0 C 78 % 1017,6 hPa 0,0 l/m W-SW 0,33 h 35 W/m 10,8 km/h (2 Bft)
25.01.2019 17:00 -2,3 C 77 % 1017,7 hPa 0,0 l/m SW 0,00 h 7 W/m 4,4 km/h (1 Bft)
25.01.2019 18:00 -2,6 C 78 % 1018,1 hPa 0,0 l/m SW 0,00 h 0 W/m 5,7 km/h (1 Bft)
25.01.2019 19:00 -3,0 C 77 % 1018,4 hPa 0,0 l/m W-SW 0,00 h 0 W/m 9,3 km/h (2 Bft)
25.01.2019 20:00 -3,4 C 78 % 1018,5 hPa 0,0 l/m W-SW 0,00 h 0 W/m 8,6 km/h (2 Bft)
25.01.2019 21:00 -4,0 C 79 % 1018,4 hPa 0,0 l/m N 0,00 h 0 W/m 0,0 km/h (0 Bft)
25.01.2019 22:00 -4,3 C 82 % 1018,4 hPa 0,0 l/m SW 0,00 h 0 W/m 0,7 km/h (0 Bft)
25.01.2019 23:00 -3,2 C 85 % 1017,9 hPa 0,0 l/m SW 0,00 h 0 W/m 16,4 km/h (3 Bft)
26.01.2019 00:00 -3,1 C 85 % 1017,4 hPa 0,0 l/m SW 0,00 h 0 W/m 18,1 km/h (3 Bft)
26.01.2019 01:00 -3,1 C 86 % 1016,7 hPa 0,0 l/m SW 0,00 h 0 W/m 14,8 km/h (3 Bft)
26.01.2019 02:00 -2,5 C 81 % 1016,4 hPa 0,0 l/m SW 0,00 h 0 W/m 15,6 km/h (3 Bft)
26.01.2019 03:00 -2,4 C 83 % 1016,4 hPa 0,0 l/m SW 0,00 h 0 W/m 12,5 km/h (3 Bft)
26.01.2019 04:00 -2,7 C 91 % 1015,7 hPa 0,2 l/m SW 0,00 h 0 W/m 23,7 km/h (4 Bft)
26.01.2019 05:00 -2,4 C 92 % 1015,6 hPa 0,0 l/m SW 0,00 h 0 W/m 26,1 km/h (4 Bft)
26.01.2019 06:00 -2,1 C 91 % 1015,6 hPa 0,2 l/m SW 0,00 h 0 W/m 21,2 km/h (4 Bft)
26.01.2019 07:00 -1,8 C 91 % 1015,6 hPa 0,2 l/m S-SW 0,00 h 0 W/m 13,7 km/h (3 Bft)
26.01.2019 08:00 -1,5 C 91 % 1015,7 hPa 0,0 l/m SW 0,00 h 16 W/m 14,0 km/h (3 Bft)
26.01.2019 09:00 -0,7 C 93 % 1015,6 hPa 0,0 l/m SW 0,00 h 69 W/m 20,1 km/h (4 Bft)
26.01.2019 10:00 0,0 C 93 % 1015,2 hPa 0,0 l/m SW 0,17 h 143 W/m 24,1 km/h (4 Bft)
26.01.2019 11:00 0,7 C 92 % 1014,9 hPa 0,0 l/m W-SW 0,50 h 185 W/m 16,0 km/h (3 Bft)
26.01.2019 12:00 1,1 C 91 % 1014,0 hPa 0,0 l/m SW 0,00 h 177 W/m 18,5 km/h (3 Bft)
26.01.2019 13:00 2,0 C 90 % 1013,0 hPa 0,0 l/m S-SW 0,83 h 280 W/m 15,7 km/h (3 Bft)
26.01.2019 14:00 2,6 C 90 % 1012,2 hPa 0,0 l/m W-SW 0,00 h 131 W/m 20,5 km/h (4 Bft)
26.01.2019 15:00 2,4 C 91 % 1011,9 hPa 0,0 l/m SW 0,08 h 98 W/m 18,0 km/h (3 Bft)
26.01.2019 16:00 1,7 C 92 % 1011,2 hPa 0,0 l/m SW 0,33 h 48 W/m 11,4 km/h (2 Bft)
26.01.2019 17:00 1,3 C 94 % 1010,7 hPa 0,0 l/m SW 0,08 h 7 W/m 13,6 km/h (3 Bft)
26.01.2019 18:00 0,9 C 94 % 1010,2 hPa 0,0 l/m SW 0,00 h 0 W/m 13,4 km/h (3 Bft)
26.01.2019 19:00 0,8 C 95 % 1009,5 hPa 0,0 l/m SW 0,00 h 0 W/m 11,4 km/h (2 Bft)
26.01.2019 20:00 0,8 C 95 % 1008,6 hPa 0,0 l/m W-SW 0,00 h 0 W/m 13,3 km/h (3 Bft)
26.01.2019 21:00 1,0 C 95 % 1007,5 hPa 0,0 l/m SW 0,00 h 0 W/m 10,3 km/h (2 Bft)
26.01.2019 22:00 1,6 C 94 % 1006,5 hPa 0,0 l/m SW 0,00 h 0 W/m 11,6 km/h (2 Bft)
26.01.2019 23:00 0,9 C 93 % 1005,4 hPa 0,0 l/m SW 0,00 h 0 W/m 9,8 km/h (2 Bft)
27.01.2019 00:00 0,4 C 94 % 1004,2 hPa 0,0 l/m SW 0,00 h 0 W/m 9,0 km/h (2 Bft)
27.01.2019 01:00 -0,0 C 94 % 1003,1 hPa 0,0 l/m N 0,00 h 0 W/m 0,0 km/h (0 Bft)
27.01.2019 02:00 0,2 C 95 % 1002,1 hPa 0,0 l/m SW 0,00 h 0 W/m 10,5 km/h (2 Bft)
27.01.2019 03:00 1,0 C 94 % 1000,9 hPa 0,0 l/m SW 0,00 h 0 W/m 15,6 km/h (3 Bft)
27.01.2019 04:00 1,7 C 91 % 999,6 hPa 0,0 l/m SW 0,00 h 0 W/m 22,0 km/h (4 Bft)
27.01.2019 05:00 1,6 C 91 % 998,6 hPa 0,0 l/m SW 0,00 h 0 W/m 15,0 km/h (3 Bft)
27.01.2019 06:00 1,6 C 91 % 997,8 hPa 0,0 l/m SW 0,00 h 0 W/m 13,8 km/h (3 Bft)
27.01.2019 07:00 1,5 C 90 % 997,0 hPa 0,0 l/m S-SW 0,00 h 0 W/m 12,8 km/h (3 Bft)
27.01.2019 08:00 1,7 C 91 % 996,5 hPa 0,2 l/m W-SW 0,00 h 15 W/m 26,3 km/h (4 Bft)
27.01.2019 09:00 1,6 C 94 % 995,8 hPa 0,2 l/m SW 0,00 h 72 W/m 23,0 km/h (4 Bft)
27.01.2019 10:00 1,8 C 96 % 995,1 hPa 0,0 l/m SW 0,25 h 172 W/m 15,3 km/h (3 Bft)
27.01.2019 11:00 3,4 C 93 % 994,6 hPa 0,0 l/m SW 0,50 h 197 W/m 22,4 km/h (4 Bft)
27.01.2019 12:00 4,4 C 87 % 993,5 hPa 0,0 l/m SW 0,25 h 219 W/m 25,1 km/h (4 Bft)
27.01.2019 13:00 4,7 C 84 % 992,6 hPa 0,0 l/m W-SW 0,42 h 186 W/m 24,4 km/h (4 Bft)
27.01.2019 14:00 5,1 C 84 % 991,8 hPa 0,0 l/m W-SW 0,67 h 240 W/m 24,4 km/h (4 Bft)
27.01.2019 15:00 4,5 C 87 % 991,5 hPa 0,0 l/m SW 0,67 h 155 W/m 15,6 km/h (3 Bft)
27.01.2019 16:00 4,4 C 87 % 991,2 hPa 0,0 l/m SW 0,08 h 30 W/m 13,7 km/h (3 Bft)
27.01.2019 17:00 3,4 C 89 % 990,8 hPa 0,0 l/m SW 0,08 h 8 W/m 13,3 km/h (3 Bft)
27.01.2019 18:00 3,6 C 89 % 990,8 hPa 0,0 l/m SW 0,00 h 0 W/m 17,8 km/h (3 Bft)
27.01.2019 19:00 3,7 C 90 % 991,2 hPa 1,4 l/m W-SW 0,00 h 0 W/m 22,2 km/h (4 Bft)
27.01.2019 20:00 2,5 C 94 % 991,4 hPa 0,0 l/m W-SW 0,00 h 0 W/m 21,7 km/h (4 Bft)
27.01.2019 21:00 2,7 C 95 % 992,0 hPa 0,6 l/m W-SW 0,00 h 0 W/m 24,4 km/h (4 Bft)
27.01.2019 22:00 2,5 C 96 % 993,0 hPa 0,0 l/m W-SW 0,00 h 0 W/m 21,0 km/h (4 Bft)
27.01.2019 23:00 1,6 C 94 % 994,6 hPa 0,0 l/m W-NW 0,00 h 0 W/m 25,3 km/h (4 Bft)
Min-Datum _ 25.01.19 25.01.19 27.01.19 - - - - 21.01.19
_ Min-Zeit 07:25 14:45 17:40 - - - - 00:20
Minimum _ -7,1 C 77 % 990,6 hPa - - - - 0,0 km/h (0 Bft)
Max-Datum _ 27.01.19 21.01.19 21.01.19 27.01.19 - 23.01.19 25.01.19 27.01.19
_ Max-Zeit 14:10 20:10 10:35 19:35 - 11:20 12:05 08:25
Maximum _ 5,3 C 100 % 1020,0 hPa 1,4 l/m - 0,08 h 485 W/m 37,0 km/h
SW (5 Bft)
Durchschnitt _ -2,2 C 90 % 1008,4 hPa #4,4 l/m SW #12:05 h 97 W/m 7,7 km/h (2 Bft)